Time;durP1;ratioP1;P1;durP2;ratioP2;P2;SDS_P1;SDS_P2;PMS_P1;PMS_P2;Temp;Humidity;BMP_temperature;BMP_pressure;BME280_temperature;BME280_humidity;BME280_pressure;Samples;Min_cycle;Max_cycle;Signal;HPM_P1;HPM_P2
2022/12/16 00:00:17;;;;;;;141.65;65.20;;;-4.30;99.90;;;;;;2701716;39;20429;31
2022/12/16 00:02:51;;;;;;;126.20;58.20;;;-4.30;99.90;;;;;;2603436;54;20026;31
2022/12/16 00:05:28;;;;;;;127.10;62.00;;;-4.30;99.90;;;;;;2603386;54;20179;31
2022/12/16 00:08:05;;;;;;;126.03;58.93;;;-4.30;99.90;;;;;;2603612;54;20046;31
2022/12/16 00:13:28;;;;;;;128.07;60.03;;;-4.30;99.90;;;;;;2603230;54;20030;31
2022/12/16 00:16:06;;;;;;;134.82;63.17;;;-4.20;99.90;;;;;;2603087;54;20864;31
2022/12/16 00:18:42;;;;;;;132.20;62.05;;;-4.20;99.90;;;;;;2603316;54;20048;31
2022/12/16 00:21:17;;;;;;;144.48;68.43;;;-4.20;99.90;;;;;;2701767;39;22378;31
2022/12/16 00:23:54;;;;;;;130.37;61.10;;;-4.20;99.90;;;;;;2603354;54;20046;31
2022/12/16 00:26:30;;;;;;;133.27;60.47;;;-4.10;99.90;;;;;;2603346;54;20814;31
2022/12/16 00:29:05;;;;;;;125.90;59.67;;;-4.10;99.90;;;;;;2603152;54;20104;31
2022/12/16 00:31:39;;;;;;;154.90;72.55;;;-4.10;99.90;;;;;;2701998;39;22299;31
2022/12/16 00:34:15;;;;;;;143.77;68.07;;;-4.10;99.90;;;;;;2701778;39;20469;31
2022/12/16 00:36:50;;;;;;;132.83;63.77;;;-4.00;99.90;;;;;;2602786;54;20065;31
2022/12/16 00:39:30;;;;;;;129.87;63.17;;;-4.00;99.90;;;;;;2603154;54;21324;31
2022/12/16 00:42:05;;;;;;;118.27;57.63;;;-4.00;99.90;;;;;;2603192;54;21222;31
2022/12/16 00:44:40;;;;;;;114.35;54.28;;;-4.00;99.90;;;;;;2603322;54;20247;31
2022/12/16 00:47:15;;;;;;;113.67;53.87;;;-4.00;99.90;;;;;;2603120;54;20049;31
2022/12/16 00:49:50;;;;;;;113.15;50.65;;;-4.00;99.90;;;;;;2603280;54;20050;31
2022/12/16 00:52:25;;;;;;;109.50;50.80;;;-4.00;99.90;;;;;;2603257;54;20022;31
2022/12/16 00:55:02;;;;;;;112.33;52.50;;;-4.00;99.90;;;;;;2602952;54;20044;31
2022/12/16 00:57:36;;;;;;;103.30;48.13;;;-4.00;99.90;;;;;;2602814;54;21245;31
2022/12/16 01:00:14;;;;;;;108.82;49.65;;;-3.90;99.90;;;;;;2603258;54;20046;31
2022/12/16 01:02:49;;;;;;;107.10;49.80;;;-3.90;99.90;;;;;;2603186;54;20961;31
2022/12/16 01:05:25;;;;;;;100.35;47.50;;;-3.90;99.90;;;;;;2603313;54;19934;31
2022/12/16 01:08:01;;;;;;;101.95;47.40;;;-3.90;99.90;;;;;;2602830;54;20033;31
2022/12/16 01:10:39;;;;;;;96.65;47.03;;;-3.90;99.90;;;;;;2602978;54;20026;31
2022/12/16 01:13:14;;;;;;;97.03;44.33;;;-3.90;99.90;;;;;;2621589;46;20033;31
2022/12/16 01:15:49;;;;;;;90.97;44.57;;;-3.80;99.90;;;;;;2603273;54;20053;31
2022/12/16 01:18:27;;;;;;;93.30;45.87;;;-3.80;99.90;;;;;;2603230;54;20388;31
2022/12/16 01:21:04;;;;;;;92.25;43.55;;;-3.80;99.90;;;;;;2603067;54;20030;31
2022/12/16 01:23:39;;;;;;;91.15;44.05;;;-3.80;99.90;;;;;;2603007;54;20074;31
2022/12/16 01:26:20;;;;;;;83.60;40.30;;;-3.80;99.90;;;;;;2621645;46;20821;31
2022/12/16 01:28:55;;;;;;;83.80;43.30;;;-3.80;99.90;;;;;;2603182;54;20030;31
2022/12/16 01:31:34;;;;;;;81.82;41.45;;;-3.80;99.90;;;;;;2603247;54;20904;31
2022/12/16 01:34:10;;;;;;;88.55;42.15;;;-3.80;99.90;;;;;;2603144;54;20026;31
2022/12/16 01:36:46;;;;;;;81.78;39.17;;;-3.70;99.90;;;;;;2621487;47;20029;31
2022/12/16 01:39:22;;;;;;;87.83;42.33;;;-3.70;99.90;;;;;;2603078;54;20785;31
2022/12/16 01:41:59;;;;;;;79.03;39.85;;;-3.70;99.90;;;;;;2602369;54;21061;31
2022/12/16 01:44:36;;;;;;;88.87;40.77;;;-3.70;99.90;;;;;;2602863;54;20924;31
2022/12/16 01:47:15;;;;;;;84.47;39.70;;;-3.70;99.90;;;;;;2603265;54;21207;31
2022/12/16 01:49:50;;;;;;;79.00;37.67;;;-3.60;99.90;;;;;;2602878;54;20242;31
2022/12/16 01:52:27;;;;;;;80.93;38.97;;;-3.60;99.90;;;;;;2621482;47;20876;31
2022/12/16 01:55:04;;;;;;;76.40;38.25;;;-3.60;99.90;;;;;;2603009;54;20608;31
2022/12/16 01:57:44;;;;;;;80.40;37.23;;;-3.60;99.90;;;;;;2602672;54;20019;31
2022/12/16 02:00:19;;;;;;;73.45;36.83;;;-3.60;99.90;;;;;;2602920;54;20026;31
2022/12/16 02:02:54;;;;;;;70.90;36.03;;;-3.50;99.90;;;;;;2602915;54;20037;31
2022/12/16 02:05:32;;;;;;;82.80;40.10;;;-3.50;99.90;;;;;;2603079;54;20861;31
2022/12/16 02:08:15;;;;;;;85.72;38.28;;;-3.50;99.90;;;;;;2702130;39;20485;31
2022/12/16 02:11:11;;;;;;;77.82;36.97;;;-3.50;99.90;;;;;;2603895;54;20034;31
2022/12/16 02:14:07;;;;;;;78.67;38.87;;;-3.40;99.90;;;;;;2603788;54;20026;31
2022/12/16 02:16:41;;;;;;;83.65;40.05;;;-3.40;99.90;;;;;;2603428;54;20100;31
2022/12/16 02:19:27;;;;;;;83.68;38.83;;;-3.40;99.90;;;;;;2603491;54;20027;31
2022/12/16 02:22:02;;;;;;;84.35;39.58;;;-3.40;99.90;;;;;;2702078;39;20477;31
2022/12/16 02:25:00;;;;;;;82.20;37.88;;;-3.40;99.90;;;;;;2603511;54;20874;31
2022/12/16 02:28:00;;;;;;;76.65;38.75;;;-3.40;99.90;;;;;;2603521;54;20793;31
2022/12/16 02:31:00;;;;;;;74.72;36.58;;;-3.30;99.90;;;;;;2603649;54;20026;31
2022/12/16 02:33:55;;;;;;;80.00;37.55;;;-3.30;99.90;;;;;;2603631;54;20559;31
2022/12/16 02:36:39;;;;;;;77.65;37.63;;;-3.30;99.90;;;;;;2603541;54;20026;31
2022/12/16 02:39:17;;;;;;;72.10;35.20;;;-3.30;99.90;;;;;;2701868;39;21668;31
2022/12/16 02:41:54;;;;;;;72.05;34.28;;;-3.30;99.90;;;;;;2603810;54;20561;31
2022/12/16 02:44:33;;;;;;;69.82;34.25;;;-3.30;99.90;;;;;;2603501;54;20864;31
2022/12/16 02:47:11;;;;;;;73.18;35.95;;;-3.30;99.90;;;;;;2602822;54;20920;31
2022/12/16 02:49:48;;;;;;;67.63;33.35;;;-3.20;99.90;;;;;;2603642;54;20698;31
2022/12/16 02:52:24;;;;;;;71.72;36.40;;;-3.20;99.90;;;;;;2603472;54;20026;31
2022/12/16 02:55:01;;;;;;;76.67;36.07;;;-3.20;99.90;;;;;;2603467;54;20030;31
2022/12/16 02:57:54;;;;;;;67.68;32.97;;;-3.10;99.90;;;;;;2621905;46;20026;31
2022/12/16 03:00:30;;;;;;;68.10;34.33;;;-3.10;99.90;;;;;;2621788;46;20901;31
2022/12/16 03:03:09;;;;;;;75.20;35.20;;;-3.10;99.90;;;;;;2603613;54;21057;31
2022/12/16 03:05:48;;;;;;;66.30;33.15;;;-3.10;99.90;;;;;;2603687;54;20030;31
2022/12/16 03:08:26;;;;;;;65.85;32.85;;;-3.10;99.90;;;;;;2603684;54;20682;31
2022/12/16 03:11:02;;;;;;;69.15;34.20;;;-3.10;99.90;;;;;;2602554;54;20054;31
2022/12/16 03:13:39;;;;;;;68.80;34.25;;;-3.00;99.90;;;;;;2617626;46;20788;31
2022/12/16 03:16:12;;;;;;;65.90;32.45;;;-3.00;99.90;;;;;;2702318;39;22413;31
2022/12/16 03:18:51;;;;;;;63.97;32.93;;;-3.00;99.90;;;;;;2603310;54;20022;31
2022/12/16 03:21:31;;;;;;;64.28;32.03;;;-3.00;99.90;;;;;;2603323;54;20842;31
2022/12/16 03:24:07;;;;;;;70.20;33.78;;;-3.00;99.90;;;;;;2603588;54;20073;31
2022/12/16 03:26:43;;;;;;;72.75;33.65;;;-3.00;99.90;;;;;;2622028;46;20027;31
2022/12/16 03:29:21;;;;;;;72.60;33.33;;;-3.00;99.90;;;;;;2603487;54;20022;31
2022/12/16 03:31:57;;;;;;;63.67;32.00;;;-3.00;99.90;;;;;;2603422;54;20972;31
2022/12/16 03:34:38;;;;;;;63.58;31.90;;;-3.00;99.90;;;;;;2603520;54;20073;31
2022/12/16 03:37:14;;;;;;;69.22;33.33;;;-3.00;99.90;;;;;;2603277;54;20937;31
2022/12/16 03:39:50;;;;;;;;;;;-3.00;99.90;;;;;;2622186;46;20026;31
2022/12/16 03:42:24;;;;;;;73.57;33.13;;;-3.00;99.90;;;;;;2603393;54;19977;31
2022/12/16 03:45:03;;;;;;;68.65;33.17;;;-3.00;99.90;;;;;;2603620;54;20053;31
2022/12/16 03:47:38;;;;;;;64.90;32.65;;;-3.00;99.90;;;;;;2603382;54;20034;31
2022/12/16 03:50:17;;;;;;;67.00;33.30;;;-3.00;99.90;;;;;;2603739;54;20052;31
2022/12/16 03:52:52;;;;;;;69.05;35.40;;;-2.90;99.90;;;;;;2603403;54;20837;31
2022/12/16 03:55:30;;;;;;;65.50;33.00;;;-2.90;99.90;;;;;;2603193;54;20053;31
2022/12/16 03:58:04;;;;;;;64.50;33.07;;;-2.90;99.90;;;;;;2603221;54;20960;31
2022/12/16 04:00:39;;;;;;;68.00;32.10;;;-2.90;99.90;;;;;;2603454;54;20266;31
2022/12/16 04:03:14;;;;;;;69.78;33.78;;;-2.90;99.90;;;;;;2603418;54;20846;31
2022/12/16 04:05:53;;;;;;;72.75;33.80;;;-2.90;99.90;;;;;;2603322;54;20027;31
2022/12/16 04:08:28;;;;;;;64.95;32.60;;;-2.90;99.90;;;;;;2603361;54;20777;31
2022/12/16 04:25:07;;;;;;;68.30;32.58;;;-2.90;99.90;;;;;;2603352;54;20873;31
2022/12/16 04:27:45;;;;;;;62.60;30.53;;;-2.80;99.90;;;;;;2603601;54;20884;31
2022/12/16 04:30:23;;;;;;;64.95;32.58;;;-2.90;99.90;;;;;;2603182;54;20247;31
